createdAt,value
2018-09-21T00:00:18.240Z,0
2018-09-21T00:01:28.302Z,0
2018-09-21T00:02:38.126Z,0
2018-09-21T00:03:47.938Z,0
2018-09-21T00:04:57.991Z,0
2018-09-21T00:06:08.514Z,0
2018-09-21T00:07:18.598Z,0
2018-09-21T00:08:28.396Z,0
2018-09-21T00:09:38.483Z,0
2018-09-21T00:10:48.545Z,0
2018-09-21T00:11:58.347Z,0
2018-09-21T00:13:08.432Z,0
2018-09-21T00:14:18.253Z,0
2018-09-21T00:15:28.064Z,0
2018-09-21T00:16:37.873Z,0
2018-09-21T00:17:47.694Z,0
2018-09-21T00:18:57.502Z,0
2018-09-21T00:20:08.083Z,0
2018-09-21T00:21:17.896Z,0
2018-09-21T00:22:27.710Z,0
2018-09-21T00:23:38.845Z,0
2018-09-21T00:24:48.140Z,0
2018-09-21T00:25:58.220Z,0
2018-09-21T00:27:10.499Z,0
2018-09-21T00:28:20.616Z,0
2018-09-21T00:29:30.688Z,0
2018-09-21T00:30:40.761Z,0
2018-09-21T00:31:50.589Z,0
2018-09-21T00:33:00.677Z,0
2018-09-21T00:34:10.477Z,0
2018-09-21T00:35:20.600Z,0
2018-09-21T00:36:30.413Z,0
2018-09-21T00:37:40.502Z,0
2018-09-21T00:38:50.571Z,0
2018-09-21T00:40:01.233Z,0
2018-09-21T00:41:11.313Z,0
2018-09-21T00:42:21.133Z,0
2018-09-21T00:43:31.196Z,0
2018-09-21T00:44:41.005Z,0
2018-09-21T00:45:51.080Z,0
2018-09-21T00:47:03.215Z,0
2018-09-21T00:48:12.755Z,0
2018-09-21T00:49:22.880Z,0
2018-09-21T00:50:32.698Z,0
2018-09-21T00:51:42.245Z,0
2018-09-21T00:52:52.321Z,0
2018-09-21T00:54:02.143Z,0
2018-09-21T00:55:12.219Z,0
2018-09-21T00:56:22.018Z,0
2018-09-21T00:57:32.097Z,0
2018-09-21T00:58:42.274Z,0
2018-09-21T00:59:52.358Z,0
2018-09-21T01:01:02.429Z,0
2018-09-21T01:02:12.253Z,0
2018-09-21T01:03:22.071Z,0
2018-09-21T01:04:32.144Z,0
2018-09-21T01:05:42.213Z,0
2018-09-21T01:06:52.272Z,0
2018-09-21T01:08:02.440Z,0
2018-09-21T01:09:12.506Z,0
2018-09-21T01:10:22.381Z,0
2018-09-21T01:11:32.463Z,0
2018-09-21T01:12:42.555Z,0
2018-09-21T01:13:52.639Z,0
2018-09-21T01:15:02.724Z,0
2018-09-21T01:16:13.833Z,0
2018-09-21T01:17:23.904Z,0
2018-09-21T01:18:33.705Z,0
2018-09-21T01:19:43.517Z,0
2018-09-21T01:20:53.070Z,0
2018-09-21T01:22:03.153Z,0
2018-09-21T01:23:13.345Z,0
2018-09-21T01:24:23.166Z,0
2018-09-21T01:25:33.221Z,0
2018-09-21T01:26:43.313Z,0
2018-09-21T01:27:53.189Z,0
2018-09-21T01:29:02.758Z,0
2018-09-21T01:30:12.854Z,0
2018-09-21T01:31:22.668Z,0
2018-09-21T01:32:32.755Z,0
2018-09-21T01:33:42.894Z,0
2018-09-21T01:34:52.980Z,0
2018-09-21T01:36:03.050Z,0
2018-09-21T01:37:13.144Z,0
2018-09-21T01:38:23.202Z,0
2018-09-21T01:39:33.022Z,0
2018-09-21T01:40:43.103Z,0
2018-09-21T01:41:53.205Z,0
2018-09-21T01:43:03.027Z,0
2018-09-21T01:44:13.104Z,0
2018-09-21T01:45:23.187Z,0
2018-09-21T01:46:32.988Z,0
2018-09-21T01:47:43.059Z,0
2018-09-21T01:48:53.156Z,0
2018-09-21T01:50:03.246Z,0
2018-09-21T01:51:13.344Z,0
2018-09-21T01:52:23.142Z,0
2018-09-21T01:53:33.220Z,0
2018-09-21T01:54:43.300Z,0
2018-09-21T01:55:53.170Z,0
2018-09-21T01:57:03.290Z,0
2018-09-21T01:58:13.095Z,0
2018-09-21T01:59:23.173Z,0
2018-09-21T02:00:33.234Z,0
2018-09-21T02:01:43.054Z,0
2018-09-21T02:02:53.108Z,0
2018-09-21T02:04:02.933Z,0
2018-09-21T02:05:13.009Z,0
2018-09-21T02:06:23.090Z,0
2018-09-21T02:07:33.175Z,0
2018-09-21T02:08:43.245Z,0
2018-09-21T02:09:53.335Z,0
2018-09-21T02:11:03.522Z,0
2018-09-21T02:12:13.598Z,0
2018-09-21T02:13:23.677Z,0
2018-09-21T02:14:33.803Z,0
2018-09-21T02:15:43.617Z,0
2018-09-21T02:16:53.707Z,0
2018-09-21T02:18:04.632Z,0
2018-09-21T02:19:14.720Z,0
2018-09-21T02:20:24.872Z,0
2018-09-21T02:21:34.690Z,0
2018-09-21T02:22:44.773Z,0
2018-09-21T02:23:54.569Z,0
2018-09-21T02:25:04.643Z,0
2018-09-21T02:26:14.745Z,0
2018-09-21T02:27:24.820Z,0
2018-09-21T02:28:34.647Z,0
2018-09-21T02:29:44.705Z,0
2018-09-21T02:30:54.527Z,0
2018-09-21T02:32:04.328Z,0
2018-09-21T02:33:14.146Z,0
2018-09-21T02:34:24.230Z,0
2018-09-21T02:35:34.289Z,0
2018-09-21T02:36:44.182Z,0
2018-09-21T02:37:53.991Z,0
2018-09-21T02:39:04.082Z,0
2018-09-21T02:40:14.168Z,0
2018-09-21T02:41:24.635Z,0
2018-09-21T02:42:34.813Z,0
2018-09-21T02:43:44.768Z,0
2018-09-21T02:44:54.859Z,0
2018-09-21T02:46:04.943Z,0
2018-09-21T02:47:15.032Z,0
2018-09-21T02:48:24.847Z,0
2018-09-21T02:49:34.653Z,0
2018-09-21T02:50:44.747Z,0
2018-09-21T02:51:54.822Z,0
2018-09-21T02:53:04.906Z,0
2018-09-21T02:54:15.018Z,0
2018-09-21T02:55:25.756Z,0
2018-09-21T02:56:35.817Z,0
2018-09-21T02:57:45.913Z,0
2018-09-21T02:58:55.738Z,0
2018-09-21T03:00:05.814Z,0
2018-09-21T03:01:15.932Z,0
2018-09-21T03:02:26.019Z,0
2018-09-21T03:35:32.210Z,0
2018-09-21T03:36:42.294Z,0
2018-09-21T03:37:52.129Z,0
2018-09-21T03:39:02.941Z,0
2018-09-21T03:40:13.057Z,0
2018-09-21T03:41:23.177Z,0
2018-09-21T03:42:33.009Z,0
2018-09-21T03:43:43.086Z,0
2018-09-21T03:44:53.231Z,0
2018-09-21T03:46:03.935Z,0
2018-09-21T03:47:14.539Z,0
2018-09-21T03:48:24.609Z,0
2018-09-21T03:49:34.433Z,0
2018-09-21T03:50:44.530Z,0
2018-09-21T03:51:54.352Z,0
2018-09-21T03:53:04.480Z,0
2018-09-21T03:54:14.564Z,0
2018-09-21T03:55:24.711Z,0
2018-09-21T03:56:34.783Z,0
2018-09-21T03:57:44.863Z,0
2018-09-21T03:58:54.922Z,0
2018-09-21T04:00:04.742Z,0
2018-09-21T04:01:14.953Z,0
2018-09-21T04:02:25.108Z,0
2018-09-21T04:03:35.185Z,0
2018-09-21T04:04:45.320Z,0
2018-09-21T04:05:55.394Z,0
2018-09-21T04:07:05.494Z,0
2018-09-21T04:08:15.561Z,0
2018-09-21T04:09:25.628Z,4
2018-09-21T04:10:35.779Z,0
2018-09-21T04:11:45.866Z,0
2018-09-21T04:12:55.941Z,4
2018-09-21T04:14:06.010Z,0
2018-09-21T04:15:16.086Z,4
2018-09-21T04:16:25.924Z,4
2018-09-21T04:17:36.003Z,4
2018-09-21T04:18:46.097Z,8
2018-09-21T04:19:56.162Z,8
2018-09-21T04:21:05.995Z,8
2018-09-21T04:22:15.549Z,12
2018-09-21T04:23:25.655Z,16
2018-09-21T04:24:35.742Z,20
2018-09-21T04:25:45.553Z,20
2018-09-21T04:26:55.357Z,24
2018-09-21T04:28:05.169Z,32
2018-09-21T04:29:15.242Z,36
2018-09-21T04:30:25.339Z,40
2018-09-21T04:31:35.394Z,52
2018-09-21T04:32:45.232Z,56
2018-09-21T04:33:55.290Z,68
2018-09-21T04:35:07.669Z,76
2018-09-21T04:36:18.083Z,84
2018-09-21T04:37:28.178Z,100
2018-09-21T04:38:38.263Z,112
2018-09-21T04:39:48.345Z,124
2018-09-21T04:40:58.422Z,140
2018-09-21T04:42:10.996Z,156
2018-09-21T04:43:20.809Z,172
2018-09-21T04:44:30.987Z,192
2018-09-21T04:45:40.700Z,212
2018-09-21T04:46:50.794Z,232
2018-09-21T04:48:00.877Z,252
2018-09-21T04:49:10.973Z,272
2018-09-21T04:50:21.062Z,292
2018-09-21T04:51:31.139Z,316
2018-09-21T04:52:41.276Z,340
2018-09-21T04:53:51.359Z,364
2018-09-21T04:55:02.188Z,392
2018-09-21T04:56:12.250Z,420
2018-09-21T04:57:22.113Z,444
2018-09-21T04:58:32.192Z,472
2018-09-21T04:59:42.270Z,504
2018-09-21T05:00:52.073Z,528
2018-09-21T05:02:01.664Z,560
2018-09-21T05:03:11.827Z,588
2018-09-21T05:04:21.889Z,624
2018-09-21T05:05:31.705Z,652
2018-09-21T05:06:41.524Z,684
2018-09-21T05:07:51.604Z,712
2018-09-21T05:09:01.664Z,748
2018-09-21T05:10:11.756Z,780
2018-09-21T05:11:21.831Z,808
2018-09-21T05:12:31.930Z,844
2018-09-21T05:13:42.330Z,880
2018-09-21T05:14:52.524Z,912
2018-09-21T05:16:02.699Z,944
2018-09-21T05:17:12.777Z,980
2018-09-21T05:18:22.873Z,1012
2018-09-21T05:19:32.957Z,1044
2018-09-21T05:20:42.775Z,1080
2018-09-21T05:21:52.864Z,1112
2018-09-21T05:23:03.537Z,1156
2018-09-21T05:24:13.074Z,1188
2018-09-21T05:25:22.880Z,1212
2018-09-21T05:26:32.720Z,1248
2018-09-21T05:27:42.739Z,1308
2018-09-21T05:28:52.899Z,1352
2018-09-21T05:30:06.385Z,1364
2018-09-21T05:31:16.450Z,1392
2018-09-21T05:32:26.588Z,1480
2018-09-21T05:33:36.668Z,1600
2018-09-21T05:34:47.613Z,1664
2018-09-21T05:35:58.010Z,1624
2018-09-21T05:37:11.247Z,1556
2018-09-21T05:38:21.309Z,1560
2018-09-21T05:39:31.389Z,1588
2018-09-21T05:40:41.479Z,1620
2018-09-21T05:41:51.559Z,1652
2018-09-21T05:43:01.388Z,1676
2018-09-21T05:44:11.350Z,1708
2018-09-21T05:45:21.434Z,1732
2018-09-21T05:46:31.261Z,1760
2018-09-21T05:47:41.358Z,1788
2018-09-21T05:48:51.442Z,1812
2018-09-21T05:50:01.544Z,1836
2018-09-21T05:51:11.632Z,1864
2018-09-21T05:52:21.699Z,1896
2018-09-21T05:53:31.798Z,1920
2018-09-21T05:54:41.626Z,1948
2018-09-21T05:55:51.708Z,1972
2018-09-21T05:57:01.772Z,1996
2018-09-21T05:58:11.598Z,2024
2018-09-21T05:59:21.709Z,2048
2018-09-21T06:00:31.818Z,2072
2018-09-21T06:01:42.005Z,2096
2018-09-21T06:02:52.201Z,2116
2018-09-21T06:04:02.148Z,2148
2018-09-21T06:05:12.236Z,2168
2018-09-21T06:06:22.318Z,2184
2018-09-21T06:07:32.176Z,2200
2018-09-21T06:08:42.260Z,2232
2018-09-21T06:09:52.332Z,2252
2018-09-21T06:11:02.143Z,2272
2018-09-21T06:12:12.217Z,2300
2018-09-21T06:13:22.290Z,2320
2018-09-21T06:14:31.866Z,2340
2018-09-21T06:15:41.955Z,2360
2018-09-21T06:16:51.775Z,2380
2018-09-21T06:18:01.861Z,2392
2018-09-21T06:19:11.982Z,2416
2018-09-21T06:20:22.127Z,2436
2018-09-21T06:21:31.948Z,2456
2018-09-21T06:22:52.754Z,2476
2018-09-21T06:24:02.912Z,2488
2018-09-21T06:25:13.040Z,2508
2018-09-21T06:26:22.872Z,2528
2018-09-21T06:27:32.940Z,2540
2018-09-21T06:28:42.752Z,2560
2018-09-21T06:29:52.883Z,2580
2018-09-21T06:31:02.960Z,2596
2018-09-21T06:32:12.822Z,2612
2018-09-21T06:33:22.913Z,2632
2018-09-21T06:34:32.973Z,2648
2018-09-21T06:35:43.118Z,2664
2018-09-21T06:36:52.938Z,2680
2018-09-21T06:38:03.704Z,2696
2018-09-21T06:39:13.531Z,2720
2018-09-21T06:40:23.639Z,2732
2018-09-21T06:41:33.742Z,2736
2018-09-21T06:42:43.638Z,2756
2018-09-21T06:43:53.455Z,2776
2018-09-21T06:45:03.526Z,2796
2018-09-21T06:46:13.614Z,2808
2018-09-21T06:47:23.835Z,2820
2018-09-21T06:48:33.951Z,2840
2018-09-21T06:49:44.079Z,2856
2018-09-21T06:50:54.289Z,2876
2018-09-21T06:52:04.354Z,2892
2018-09-21T06:53:14.548Z,2908
2018-09-21T06:54:24.383Z,2920
2018-09-21T06:55:34.467Z,2936
2018-09-21T06:56:44.534Z,2956
2018-09-21T06:57:54.635Z,2960
2018-09-21T06:59:04.715Z,2984
2018-09-21T07:00:14.648Z,2992
2018-09-21T07:01:24.657Z,3012
2018-09-21T07:02:34.957Z,3020
2018-09-21T07:03:45.063Z,3032
2018-09-21T07:04:55.206Z,3060
2018-09-21T07:06:05.326Z,3072
2018-09-21T07:07:15.423Z,3092
2018-09-21T07:08:25.524Z,3100
2018-09-21T07:09:35.611Z,3128
2018-09-21T07:10:45.738Z,3144
2018-09-21T07:11:55.841Z,3152
2018-09-21T07:13:07.160Z,3168
2018-09-21T07:14:16.963Z,3196
2018-09-21T07:15:27.037Z,3212
2018-09-21T07:16:37.128Z,3224
2018-09-21T07:17:47.229Z,3252
2018-09-21T07:18:57.317Z,3268
2018-09-21T07:20:07.582Z,3276
2018-09-21T07:21:17.667Z,3304
2018-09-21T07:22:27.755Z,3312
2018-09-21T07:23:37.840Z,3332
2018-09-21T07:24:47.931Z,3352
2018-09-21T07:25:58.002Z,3384
2018-09-21T07:27:08.087Z,3388
2018-09-21T07:28:18.181Z,3404
2018-09-21T07:29:28.268Z,3424
2018-09-21T07:30:38.340Z,3432
2018-09-21T07:31:48.161Z,3460
2018-09-21T07:32:58.243Z,3480
2018-09-21T07:34:09.722Z,3496
2018-09-21T07:35:19.270Z,3528
2018-09-21T07:36:28.816Z,3528
2018-09-21T07:37:39.394Z,3560
2018-09-21T07:38:49.014Z,3580
2018-09-21T07:39:59.090Z,3596
2018-09-21T07:41:09.731Z,3620
2018-09-21T07:42:19.872Z,3632
2018-09-21T07:43:29.684Z,3656
2018-09-21T07:44:40.108Z,3688
2018-09-21T07:45:50.423Z,3700
2018-09-21T07:47:00.506Z,3704
2018-09-21T07:48:10.615Z,3740
2018-09-21T07:49:20.459Z,3752
2018-09-21T07:50:30.451Z,3760
2018-09-21T07:51:40.669Z,3776
2018-09-21T07:52:50.758Z,3800
2018-09-21T07:54:00.839Z,3816
2018-09-21T07:55:10.946Z,3840
2018-09-21T07:56:21.039Z,3860
2018-09-21T07:57:31.177Z,3868
2018-09-21T07:58:41.022Z,3896
2018-09-21T07:59:50.569Z,3908
2018-09-21T08:01:00.669Z,3940
2018-09-21T08:02:10.491Z,3952
2018-09-21T08:03:20.582Z,3956
2018-09-21T08:04:30.136Z,3968
2018-09-21T08:05:39.970Z,3992
2018-09-21T08:06:50.053Z,4012
2018-09-21T08:08:00.902Z,4044
2018-09-21T08:09:11.055Z,4056
2018-09-21T08:10:20.884Z,4056
2018-09-21T08:11:30.696Z,4084
2018-09-21T08:12:40.831Z,4096
2018-09-21T08:13:51.001Z,4100
2018-09-21T08:15:01.094Z,4132
2018-09-21T08:16:11.211Z,4156
2018-09-21T08:17:21.319Z,4164
2018-09-21T08:18:31.397Z,4172
2018-09-21T08:19:41.697Z,4188
2018-09-21T08:20:51.795Z,4264
2018-09-21T08:22:01.900Z,4216
2018-09-21T08:23:11.751Z,4220
2018-09-21T08:24:21.853Z,4248
2018-09-21T08:25:31.948Z,4256
2018-09-21T08:26:42.554Z,4272
2018-09-21T08:27:52.814Z,4288
2018-09-21T08:29:03.081Z,4300
2018-09-21T08:30:12.887Z,4308
2018-09-21T08:31:22.879Z,4328
2018-09-21T08:32:32.761Z,4344
2018-09-21T08:33:42.841Z,4372
2018-09-21T08:34:52.409Z,4404
2018-09-21T08:36:02.520Z,4424
2018-09-21T08:37:13.021Z,4444
2018-09-21T08:38:23.015Z,4440
2018-09-21T08:39:33.100Z,4444
2018-09-21T08:40:43.238Z,4496
2018-09-21T08:41:53.355Z,4512
2018-09-21T08:43:03.309Z,4520
2018-09-21T08:44:13.298Z,4520
2018-09-21T08:45:23.424Z,4536
2018-09-21T08:46:33.589Z,4540
2018-09-21T08:47:43.683Z,4564
2018-09-21T08:48:53.267Z,4592
2018-09-21T08:50:03.353Z,4596
2018-09-21T08:51:13.295Z,4628
2018-09-21T08:52:23.401Z,4644
2018-09-21T08:53:33.492Z,4644
2018-09-21T08:54:43.576Z,4664
2018-09-21T08:55:53.743Z,4672
2018-09-21T08:57:03.839Z,4700
2018-09-21T08:58:13.954Z,4704
2018-09-21T08:59:24.054Z,4692
2018-09-21T09:00:34.131Z,4700
2018-09-21T09:01:43.944Z,4744
2018-09-21T09:02:53.865Z,4736
2018-09-21T09:04:03.765Z,4748
2018-09-21T09:05:13.846Z,4776
2018-09-21T09:06:23.946Z,4792
2018-09-21T09:07:33.827Z,4804
2018-09-21T09:08:43.656Z,4828
2018-09-21T09:09:53.752Z,4808
2018-09-21T09:11:03.873Z,4776
2018-09-21T09:12:13.691Z,4824
2018-09-21T09:13:23.767Z,4848
2018-09-21T09:14:33.882Z,4900
2018-09-21T09:15:43.946Z,4884
2018-09-21T09:16:54.037Z,4912
2018-09-21T09:18:04.129Z,4944
2018-09-21T09:19:14.285Z,4944
2018-09-21T09:20:23.897Z,4944
2018-09-21T09:21:33.982Z,4972
2018-09-21T09:22:44.073Z,4968
2018-09-21T09:23:54.153Z,4984
2018-09-21T09:25:06.366Z,4948
2018-09-21T09:26:16.522Z,4972
2018-09-21T09:27:26.342Z,4968
2018-09-21T09:28:36.410Z,5032
2018-09-21T09:29:46.350Z,5056
2018-09-21T09:30:56.499Z,5056
2018-09-21T09:32:06.599Z,5048
2018-09-21T09:33:16.438Z,5012
2018-09-21T09:34:26.535Z,5092
2018-09-21T09:35:36.630Z,5120
2018-09-21T09:36:46.308Z,5120
2018-09-21T09:37:56.226Z,5152
2018-09-21T09:39:06.067Z,5128
2018-09-21T09:40:16.165Z,5140
2018-09-21T09:41:26.263Z,5172
2018-09-21T09:42:36.180Z,5184
2018-09-21T09:43:46.007Z,5172
2018-09-21T09:44:56.104Z,5164
2018-09-21T09:46:06.175Z,5176
2018-09-21T09:47:16.008Z,5240
2018-09-21T09:48:26.433Z,5152
2018-09-21T09:49:36.743Z,5236
2018-09-21T09:50:46.843Z,5228
2018-09-21T09:51:56.937Z,5284
2018-09-21T09:53:07.039Z,5244
2018-09-21T09:54:17.131Z,5252
2018-09-21T09:55:27.219Z,5300
2018-09-21T09:56:37.314Z,5240
2018-09-21T09:57:47.396Z,5256
2018-09-21T09:58:57.217Z,5264
2018-09-21T10:00:09.177Z,5236
2018-09-21T10:01:19.277Z,5308
2018-09-21T10:02:29.365Z,5300
2018-09-21T10:03:39.609Z,5272
2018-09-21T10:04:49.914Z,5328
2018-09-21T10:06:00.040Z,5316
2018-09-21T10:07:09.352Z,5324
2018-09-21T10:08:19.434Z,5284
2018-09-21T10:09:29.539Z,5268
2018-09-21T10:10:39.106Z,5260
2018-09-21T10:11:48.984Z,5304
2018-09-21T10:12:59.104Z,5320
2018-09-21T10:14:09.209Z,5284
2018-09-21T10:15:19.312Z,5344
2018-09-21T10:16:29.712Z,5352
2018-09-21T10:17:39.527Z,5328
2018-09-21T10:18:49.619Z,5296
2018-09-21T10:19:59.432Z,5360
2018-09-21T10:21:09.268Z,5376
2018-09-21T10:22:19.362Z,5368
2018-09-21T10:23:29.564Z,5392
2018-09-21T10:24:39.804Z,5380
2018-09-21T10:25:49.107Z,5396
2018-09-21T10:26:58.811Z,5376
2018-09-21T10:28:11.176Z,5380
2018-09-21T10:29:21.676Z,5348
2018-09-21T10:30:31.501Z,5400
2018-09-21T10:31:41.641Z,5440
2018-09-21T10:32:51.493Z,5472
2018-09-21T10:34:01.330Z,5504
2018-09-21T10:35:11.482Z,5468
2018-09-21T10:36:21.334Z,5544
2018-09-21T10:37:31.197Z,5448
2018-09-21T10:38:41.402Z,5476
2018-09-21T10:39:51.561Z,5476
2018-09-21T10:41:02.131Z,5500
2018-09-21T10:42:12.293Z,5440
2018-09-21T10:43:22.385Z,5416
2018-09-21T10:44:32.476Z,5484
2018-09-21T10:45:42.301Z,5384
2018-09-21T10:46:52.458Z,5404
2018-09-21T10:48:02.563Z,5464
2018-09-21T10:49:12.658Z,5444
2018-09-21T10:50:22.521Z,5480
2018-09-21T10:51:32.618Z,5496
2018-09-21T10:52:42.655Z,5508
2018-09-21T10:53:52.679Z,5516
2018-09-21T10:55:02.517Z,5556
2018-09-21T10:56:12.600Z,5564
2018-09-21T10:57:22.443Z,5544
2018-09-21T10:58:32.714Z,5484
2018-09-21T10:59:42.902Z,5472
2018-09-21T11:00:52.978Z,5460
2018-09-21T11:02:02.847Z,5532
2018-09-21T11:03:12.964Z,5580
2018-09-21T11:04:23.176Z,5524
2018-09-21T11:05:33.274Z,5572
2018-09-21T11:06:43.377Z,5632
2018-09-21T11:07:53.489Z,5628
2018-09-21T11:09:03.564Z,5648
2018-09-21T11:10:13.663Z,5640
2018-09-21T11:11:23.767Z,5668
2018-09-21T11:12:33.851Z,5700
2018-09-21T11:13:43.930Z,5740
2018-09-21T11:14:54.043Z,5680
2018-09-21T11:16:04.153Z,5688
2018-09-21T11:17:13.970Z,5676
2018-09-21T11:18:23.795Z,5680
2018-09-21T11:19:33.618Z,5700
2018-09-21T11:20:43.443Z,5712
2018-09-21T11:21:53.543Z,5756
2018-09-21T11:23:03.367Z,5716
2018-09-21T11:24:13.441Z,5732
2018-09-21T11:25:23.567Z,5672
2018-09-21T11:26:33.645Z,5664
2018-09-21T11:27:43.490Z,5744
2018-09-21T11:28:53.653Z,5780
2018-09-21T11:30:03.480Z,5844
2018-09-21T11:31:13.316Z,5848
2018-09-21T11:32:23.487Z,5788
2018-09-21T11:33:33.316Z,5828
2018-09-21T11:34:43.175Z,5840
2018-09-21T11:35:53.114Z,5872
2018-09-21T11:37:03.242Z,5892
2018-09-21T11:38:13.372Z,5896
2018-09-21T11:39:23.206Z,5832
2018-09-21T11:40:33.036Z,5832
2018-09-21T11:41:43.197Z,5844
2018-09-21T11:42:53.291Z,5856
2018-09-21T11:44:03.748Z,5848
2018-09-21T11:45:13.589Z,5872
2018-09-21T11:46:23.677Z,5888
2018-09-21T11:47:34.556Z,5896
2018-09-21T11:48:44.759Z,5920
2018-09-21T11:49:54.622Z,5932
2018-09-21T11:51:04.761Z,5996
2018-09-21T11:52:14.858Z,5992
2018-09-21T11:53:24.946Z,5980
2018-09-21T11:54:35.047Z,6028
2018-09-21T11:55:45.254Z,6080
2018-09-21T11:56:55.065Z,6060
2018-09-21T11:58:07.171Z,6028
2018-09-21T11:59:17.270Z,6056
2018-09-21T12:00:27.096Z,6072
2018-09-21T12:01:36.970Z,6068
2018-09-21T12:02:47.104Z,6084
2018-09-21T12:03:56.928Z,6096
2018-09-21T12:05:07.376Z,6056
2018-09-21T12:06:17.248Z,6100
2018-09-21T12:07:27.397Z,6148
2018-09-21T12:08:37.503Z,6152
2018-09-21T12:09:47.601Z,6188
2018-09-21T12:10:57.252Z,6192
2018-09-21T12:12:07.354Z,6208
2018-09-21T12:13:17.463Z,6184
2018-09-21T12:14:27.549Z,6192
2018-09-21T12:15:37.379Z,6176
2018-09-21T12:16:47.505Z,6168
2018-09-21T12:17:57.311Z,6136
2018-09-21T12:19:07.137Z,6144
2018-09-21T12:20:17.218Z,6164
2018-09-21T12:21:27.312Z,6144
2018-09-21T12:22:37.517Z,6148
2018-09-21T12:23:47.090Z,6156
2018-09-21T12:24:57.185Z,6152
2018-09-21T12:26:07.291Z,6088
2018-09-21T12:27:17.110Z,6100
2018-09-21T12:28:26.995Z,6076
2018-09-21T12:29:36.844Z,6060
2018-09-21T12:30:46.939Z,6040
2018-09-21T12:31:57.021Z,5980
2018-09-21T12:33:07.115Z,5968
2018-09-21T12:34:17.262Z,5940
2018-09-21T12:35:27.369Z,5916
2018-09-21T12:36:37.754Z,5876
2018-09-21T12:37:47.844Z,5856
2018-09-21T12:38:57.674Z,5788
2018-09-21T12:40:10.975Z,5740
2018-09-21T12:41:20.816Z,5664
2018-09-21T12:42:31.072Z,5648
2018-09-21T12:43:41.028Z,5628
2018-09-21T12:44:51.355Z,5560
2018-09-21T12:46:01.209Z,5548
2018-09-21T12:47:11.242Z,5552
2018-09-21T12:48:21.294Z,5556
2018-09-21T12:49:31.330Z,5512
2018-09-21T12:50:41.604Z,5528
2018-09-21T12:51:51.609Z,5508
2018-09-21T12:53:01.634Z,5512
2018-09-21T12:54:11.671Z,5496
2018-09-21T12:55:21.710Z,5484
2018-09-21T12:56:31.319Z,5480
2018-09-21T12:57:41.740Z,5440
2018-09-21T12:58:52.356Z,5444
2018-09-21T13:00:02.742Z,5416
2018-09-21T13:01:12.787Z,5372
2018-09-21T13:02:22.820Z,5380
2018-09-21T13:03:32.915Z,5356
2018-09-21T13:04:42.939Z,5304
2018-09-21T13:05:52.716Z,5280
2018-09-21T13:07:02.783Z,5256
2018-09-21T13:08:12.872Z,5244
2018-09-21T13:09:22.960Z,5196
2018-09-21T13:10:32.818Z,5172
2018-09-21T13:11:42.933Z,5164
2018-09-21T13:12:53.023Z,5144
2018-09-21T13:14:03.109Z,5156
2018-09-21T13:15:13.255Z,5152
2018-09-21T13:16:23.383Z,5128
2018-09-21T13:17:33.483Z,5096
2018-09-21T13:18:43.600Z,5088
2018-09-21T13:19:53.427Z,5064
2018-09-21T13:21:03.582Z,5052
2018-09-21T13:22:13.430Z,5040
2018-09-21T13:23:23.270Z,5004
2018-09-21T13:24:33.356Z,5028
2018-09-21T13:25:43.100Z,4992
2018-09-21T13:26:53.404Z,4940
2018-09-21T13:28:03.656Z,4936
2018-09-21T13:29:13.481Z,4916
2018-09-21T13:30:23.314Z,4912
2018-09-21T13:31:33.414Z,4912
2018-09-21T13:32:43.575Z,4896
2018-09-21T13:33:53.661Z,4876
2018-09-21T13:35:05.067Z,4868
2018-09-21T13:36:14.888Z,4840
2018-09-21T13:37:24.989Z,4800
2018-09-21T13:38:35.069Z,4748
2018-09-21T13:39:44.919Z,4716
2018-09-21T13:40:55.026Z,4656
2018-09-21T13:42:06.226Z,4668
2018-09-21T13:43:16.036Z,4664
2018-09-21T13:44:26.124Z,4676
2018-09-21T13:45:36.236Z,4628
2018-09-21T13:46:46.056Z,4616
2018-09-21T13:47:55.900Z,4612
2018-09-21T13:49:08.025Z,4576
2018-09-21T13:50:17.922Z,4604
2018-09-21T13:51:28.018Z,4608
2018-09-21T13:52:38.122Z,4596
2018-09-21T13:53:48.220Z,4536
2018-09-21T13:54:58.045Z,4548
2018-09-21T13:56:08.152Z,4500
2018-09-21T13:57:17.963Z,4504
2018-09-21T13:58:28.069Z,4480
2018-09-21T13:59:38.180Z,4468
2018-09-21T14:00:47.471Z,4452
2018-09-21T14:01:57.626Z,4400
2018-09-21T14:03:07.726Z,4364
2018-09-21T14:04:17.573Z,4300
2018-09-21T14:05:27.459Z,4252
2018-09-21T14:06:37.425Z,4272
2018-09-21T14:07:47.564Z,4232
2018-09-21T14:08:57.647Z,4228
2018-09-21T14:10:07.754Z,4244
2018-09-21T14:11:17.856Z,4224
2018-09-21T14:12:27.946Z,4212
2018-09-21T14:13:38.057Z,4120
2018-09-21T14:14:48.174Z,4160
2018-09-21T14:15:58.299Z,4152
2018-09-21T14:17:09.647Z,4152
2018-09-21T14:18:19.746Z,4144
2018-09-21T14:19:29.862Z,4088
2018-09-21T14:20:39.972Z,4076
2018-09-21T14:21:50.143Z,4088
2018-09-21T14:23:00.281Z,4064
2018-09-21T14:24:10.126Z,4032
2018-09-21T14:25:20.223Z,4036
2018-09-21T14:26:30.340Z,4024
2018-09-21T14:27:40.418Z,4028
2018-09-21T14:28:50.293Z,3996
2018-09-21T14:30:02.607Z,3948
2018-09-21T14:31:12.727Z,3896
2018-09-21T14:32:22.816Z,3852
2018-09-21T14:33:32.926Z,3884
2018-09-21T14:34:43.018Z,3876
2018-09-21T14:35:53.315Z,3864
2018-09-21T14:37:03.518Z,3860
2018-09-21T14:38:13.627Z,3816
2018-09-21T14:39:23.754Z,3772
2018-09-21T14:40:33.601Z,3744
2018-09-21T14:41:43.728Z,3692
2018-09-21T14:42:53.841Z,3656
2018-09-21T14:44:03.690Z,3664
2018-09-21T14:45:13.769Z,3616
2018-09-21T14:46:23.865Z,3608
2018-09-21T14:47:33.957Z,3552
2018-09-21T14:48:44.112Z,3412
2018-09-21T14:49:54.231Z,3084
2018-09-21T14:51:03.815Z,2860
2018-09-21T14:52:13.656Z,2916
2018-09-21T14:53:24.022Z,2964
2018-09-21T14:54:33.915Z,2968
2018-09-21T14:55:44.003Z,2716
2018-09-21T14:56:53.842Z,2636
2018-09-21T14:58:03.673Z,2636
2018-09-21T14:59:14.029Z,2564
2018-09-21T15:00:24.133Z,2596
2018-09-21T15:01:34.230Z,2484
2018-09-21T15:02:44.045Z,2604
2018-09-21T15:03:54.153Z,2824
2018-09-21T15:05:05.295Z,2900
2018-09-21T15:06:15.392Z,2936
2018-09-21T15:07:25.517Z,2972
2018-09-21T15:08:35.705Z,3012
2018-09-21T15:09:45.796Z,2912
2018-09-21T15:10:55.889Z,2812
2018-09-21T15:12:08.034Z,2684
2018-09-21T15:13:18.113Z,2512
2018-09-21T15:14:28.237Z,2336
2018-09-21T15:15:38.329Z,2176
2018-09-21T15:16:48.450Z,2104
2018-09-21T15:17:58.562Z,2372
2018-09-21T15:19:08.688Z,2400
2018-09-21T15:20:18.785Z,2132
2018-09-21T15:21:28.889Z,2272
2018-09-21T15:22:38.984Z,2400
2018-09-21T15:23:49.160Z,2556
2018-09-21T15:24:59.261Z,2580
2018-09-21T15:26:09.390Z,2560
2018-09-21T15:27:19.515Z,2528
2018-09-21T15:28:29.621Z,2552
2018-09-21T15:29:40.024Z,2532
2018-09-21T15:30:50.117Z,2460
2018-09-21T15:32:01.360Z,2456
2018-09-21T15:33:11.467Z,2440
2018-09-21T15:34:21.307Z,2368
2018-09-21T15:35:31.423Z,2456
2018-09-21T15:36:40.981Z,2432
2018-09-21T15:37:51.084Z,2404
2018-09-21T15:39:00.901Z,2372
2018-09-21T15:40:10.972Z,2340
2018-09-21T15:41:20.865Z,2276
2018-09-21T15:42:30.961Z,2184
2018-09-21T15:43:41.621Z,2096
2018-09-21T15:44:51.753Z,2000
2018-09-21T15:46:01.844Z,1864
2018-09-21T15:47:11.945Z,1808
2018-09-21T15:48:22.073Z,1776
2018-09-21T15:49:32.174Z,1760
2018-09-21T15:50:42.259Z,1672
2018-09-21T15:51:52.338Z,1608
2018-09-21T15:53:02.498Z,1524
2018-09-21T15:54:12.579Z,1360
2018-09-21T15:55:22.419Z,1244
2018-09-21T15:56:32.534Z,1228
2018-09-21T15:57:42.645Z,1224
2018-09-21T15:58:53.091Z,1272
2018-09-21T16:00:03.752Z,1324
2018-09-21T16:01:13.838Z,1344
2018-09-21T16:02:23.945Z,1340
2018-09-21T16:03:34.071Z,1308
2018-09-21T16:04:44.178Z,1300
2018-09-21T16:05:54.467Z,1288
2018-09-21T16:07:05.097Z,1264
2018-09-21T16:08:15.104Z,1228
2018-09-21T16:09:24.993Z,1196
2018-09-21T16:10:35.137Z,1164
2018-09-21T16:11:45.269Z,1140
2018-09-21T16:12:55.094Z,1112
2018-09-21T16:14:04.924Z,1064
2018-09-21T16:15:15.014Z,1024
2018-09-21T16:16:25.122Z,976
2018-09-21T16:17:35.231Z,940
2018-09-21T16:18:45.344Z,896
2018-09-21T16:19:55.433Z,864
2018-09-21T16:21:06.119Z,824
2018-09-21T16:22:16.218Z,784
2018-09-21T16:23:26.307Z,752
2018-09-21T16:24:36.132Z,732
2018-09-21T16:25:46.236Z,700
2018-09-21T16:26:56.419Z,664
2018-09-21T16:28:06.528Z,636
2018-09-21T16:29:16.651Z,608
2018-09-21T16:30:26.743Z,584